sensor_id;sensor_type;location;lat;lon;timestamp;temperature;humidity
16229;DHT22;8222;51.462;12.630;2023-07-09T00:05:14;21.40;99.90
16229;DHT22;8222;51.462;12.630;2023-07-09T00:07:41;21.40;99.90
16229;DHT22;8222;51.462;12.630;2023-07-09T00:10:20;21.40;99.90
16229;DHT22;8222;51.462;12.630;2023-07-09T00:12:47;21.50;99.90
16229;DHT22;8222;51.462;12.630;2023-07-09T00:15:16;21.40;99.90
16229;DHT22;8222;51.462;12.630;2023-07-09T00:17:42;21.30;99.90
16229;DHT22;8222;51.462;12.630;2023-07-09T00:20:14;21.30;99.90
16229;DHT22;8222;51.462;12.630;2023-07-09T00:22:45;21.20;99.90
16229;DHT22;8222;51.462;12.630;2023-07-09T00:25:19;21.10;99.90
16229;DHT22;8222;51.462;12.630;2023-07-09T00:27:49;21.10;99.90
16229;DHT22;8222;51.462;12.630;2023-07-09T00:30:20;21.10;99.90
16229;DHT22;8222;51.462;12.630;2023-07-09T00:32:48;21.00;99.90
16229;DHT22;8222;51.462;12.630;2023-07-09T00:35:14;21.00;99.90
16229;DHT22;8222;51.462;12.630;2023-07-09T00:37:43;21.00;99.90
16229;DHT22;8222;51.462;12.630;2023-07-09T00:40:20;21.10;99.90
16229;DHT22;8222;51.462;12.630;2023-07-09T00:42:49;21.20;99.90
16229;DHT22;8222;51.462;12.630;2023-07-09T00:45:25;21.00;99.90
16229;DHT22;8222;51.462;12.630;2023-07-09T00:48:04;20.90;99.90
16229;DHT22;8222;51.462;12.630;2023-07-09T00:50:35;20.70;99.90
16229;DHT22;8222;51.462;12.630;2023-07-09T00:53:08;20.60;99.90
16229;DHT22;8222;51.462;12.630;2023-07-09T00:55:39;20.70;99.90
16229;DHT22;8222;51.462;12.630;2023-07-09T00:58:12;20.50;99.90
16229;DHT22;8222;51.462;12.630;2023-07-09T01:03:25;20.60;99.90
16229;DHT22;8222;51.462;12.630;2023-07-09T01:05:55;20.60;99.90
16229;DHT22;8222;51.462;12.630;2023-07-09T01:08:24;20.60;99.90
16229;DHT22;8222;51.462;12.630;2023-07-09T01:10:55;20.50;99.90
16229;DHT22;8222;51.462;12.630;2023-07-09T01:13:23;20.50;99.90
16229;DHT22;8222;51.462;12.630;2023-07-09T01:15:52;20.40;99.90
16229;DHT22;8222;51.462;12.630;2023-07-09T01:18:21;20.40;99.90
16229;DHT22;8222;51.462;12.630;2023-07-09T01:20:51;20.40;99.90
16229;DHT22;8222;51.462;12.630;2023-07-09T01:23:20;20.50;99.90
16229;DHT22;8222;51.462;12.630;2023-07-09T01:25:50;20.40;99.90
16229;DHT22;8222;51.462;12.630;2023-07-09T01:28:22;20.40;99.90
16229;DHT22;8222;51.462;12.630;2023-07-09T01:30:47;20.40;99.90
16229;DHT22;8222;51.462;12.630;2023-07-09T01:33:19;20.30;99.90
16229;DHT22;8222;51.462;12.630;2023-07-09T01:35:45;20.40;99.90
16229;DHT22;8222;51.462;12.630;2023-07-09T01:38:13;20.40;99.90
16229;DHT22;8222;51.462;12.630;2023-07-09T01:40:43;20.50;99.90
16229;DHT22;8222;51.462;12.630;2023-07-09T01:43:14;20.30;99.90
16229;DHT22;8222;51.462;12.630;2023-07-09T01:45:42;20.20;99.90
16229;DHT22;8222;51.462;12.630;2023-07-09T01:48:10;20.10;99.90
16229;DHT22;8222;51.462;12.630;2023-07-09T01:50:39;20.00;99.90
16229;DHT22;8222;51.462;12.630;2023-07-09T01:53:06;19.90;99.90
16229;DHT22;8222;51.462;12.630;2023-07-09T01:55:34;20.00;99.90
16229;DHT22;8222;51.462;12.630;2023-07-09T01:58:01;19.90;99.90
16229;DHT22;8222;51.462;12.630;2023-07-09T02:00:32;20.00;99.90
16229;DHT22;8222;51.462;12.630;2023-07-09T02:03:00;19.90;99.90
16229;DHT22;8222;51.462;12.630;2023-07-09T02:05:31;19.80;99.90
16229;DHT22;8222;51.462;12.630;2023-07-09T02:07:59;19.90;99.90
16229;DHT22;8222;51.462;12.630;2023-07-09T02:10:28;19.90;99.90
16229;DHT22;8222;51.462;12.630;2023-07-09T02:12:56;19.90;99.90
16229;DHT22;8222;51.462;12.630;2023-07-09T02:15:22;19.70;99.90
16229;DHT22;8222;51.462;12.630;2023-07-09T02:17:47;19.70;99.90
16229;DHT22;8222;51.462;12.630;2023-07-09T02:20:13;19.60;99.90
16229;DHT22;8222;51.462;12.630;2023-07-09T02:22:41;19.50;99.90
16229;DHT22;8222;51.462;12.630;2023-07-09T02:25:10;19.50;99.90
16229;DHT22;8222;51.462;12.630;2023-07-09T02:27:41;19.60;99.90
16229;DHT22;8222;51.462;12.630;2023-07-09T02:30:07;19.60;99.90
16229;DHT22;8222;51.462;12.630;2023-07-09T02:32:35;19.80;99.90
16229;DHT22;8222;51.462;12.630;2023-07-09T02:35:01;19.80;99.90
16229;DHT22;8222;51.462;12.630;2023-07-09T02:37:29;19.80;99.90
16229;DHT22;8222;51.462;12.630;2023-07-09T02:39:57;19.70;99.90
16229;DHT22;8222;51.462;12.630;2023-07-09T02:42:25;19.60;99.90
16229;DHT22;8222;51.462;12.630;2023-07-09T02:44:51;19.40;99.90
16229;DHT22;8222;51.462;12.630;2023-07-09T02:47:17;19.30;99.90
16229;DHT22;8222;51.462;12.630;2023-07-09T02:49:43;19.40;99.90
16229;DHT22;8222;51.462;12.630;2023-07-09T02:52:09;19.50;99.90
16229;DHT22;8222;51.462;12.630;2023-07-09T02:54:35;19.50;99.90
16229;DHT22;8222;51.462;12.630;2023-07-09T02:57:01;19.50;99.90
16229;DHT22;8222;51.462;12.630;2023-07-09T02:59:29;19.50;99.90
16229;DHT22;8222;51.462;12.630;2023-07-09T03:02:01;19.40;99.90
16229;DHT22;8222;51.462;12.630;2023-07-09T03:04:29;19.40;99.90
16229;DHT22;8222;51.462;12.630;2023-07-09T03:06:59;19.30;99.90
16229;DHT22;8222;51.462;12.630;2023-07-09T03:09:25;19.30;99.90
16229;DHT22;8222;51.462;12.630;2023-07-09T03:11:51;19.30;99.90
16229;DHT22;8222;51.462;12.630;2023-07-09T03:14:19;19.30;99.90
16229;DHT22;8222;51.462;12.630;2023-07-09T03:16:45;19.30;99.90
16229;DHT22;8222;51.462;12.630;2023-07-09T03:19:13;19.40;99.90
16229;DHT22;8222;51.462;12.630;2023-07-09T03:21:39;19.40;99.90
16229;DHT22;8222;51.462;12.630;2023-07-09T03:24:05;19.30;99.90
16229;DHT22;8222;51.462;12.630;2023-07-09T03:26:30;19.30;99.90
16229;DHT22;8222;51.462;12.630;2023-07-09T03:28:58;19.30;99.90
16229;DHT22;8222;51.462;12.630;2023-07-09T03:31:24;19.30;99.90
16229;DHT22;8222;51.462;12.630;2023-07-09T03:33:54;19.40;99.90
16229;DHT22;8222;51.462;12.630;2023-07-09T03:36:22;19.40;99.90
16229;DHT22;8222;51.462;12.630;2023-07-09T03:38:53;19.40;99.90
16229;DHT22;8222;51.462;12.630;2023-07-09T03:41:21;19.60;99.90
16229;DHT22;8222;51.462;12.630;2023-07-09T03:43:47;19.60;99.90
16229;DHT22;8222;51.462;12.630;2023-07-09T03:46:15;19.70;99.90
16229;DHT22;8222;51.462;12.630;2023-07-09T03:48:41;19.90;99.90
16229;DHT22;8222;51.462;12.630;2023-07-09T03:51:09;19.90;99.90
16229;DHT22;8222;51.462;12.630;2023-07-09T03:53:35;19.90;99.90
16229;DHT22;8222;51.462;12.630;2023-07-09T03:56:00;20.00;99.90
16229;DHT22;8222;51.462;12.630;2023-07-09T03:58:28;20.10;99.90
16229;DHT22;8222;51.462;12.630;2023-07-09T04:00:54;20.10;99.90
16229;DHT22;8222;51.462;12.630;2023-07-09T04:03:20;20.10;99.90
16229;DHT22;8222;51.462;12.630;2023-07-09T04:05:50;20.20;99.90
16229;DHT22;8222;51.462;12.630;2023-07-09T04:08:16;20.40;99.90
16229;DHT22;8222;51.462;12.630;2023-07-09T04:10:41;20.40;99.90
16229;DHT22;8222;51.462;12.630;2023-07-09T04:13:09;20.50;99.90
16229;DHT22;8222;51.462;12.630;2023-07-09T04:15:35;20.60;99.90
16229;DHT22;8222;51.462;12.630;2023-07-09T04:18:03;20.70;99.90
16229;DHT22;8222;51.462;12.630;2023-07-09T04:20:31;20.60;99.90
16229;DHT22;8222;51.462;12.630;2023-07-09T04:22:59;20.60;99.90
16229;DHT22;8222;51.462;12.630;2023-07-09T04:25:25;20.60;99.90
16229;DHT22;8222;51.462;12.630;2023-07-09T04:27:50;20.40;99.90
16229;DHT22;8222;51.462;12.630;2023-07-09T04:30:18;20.40;99.90
16229;DHT22;8222;51.462;12.630;2023-07-09T04:32:47;20.60;99.90
16229;DHT22;8222;51.462;12.630;2023-07-09T04:35:13;20.70;99.90
16229;DHT22;8222;51.462;12.630;2023-07-09T04:37:40;20.90;99.90
16229;DHT22;8222;51.462;12.630;2023-07-09T04:40:11;21.00;99.90
16229;DHT22;8222;51.462;12.630;2023-07-09T04:42:38;21.20;99.90
16229;DHT22;8222;51.462;12.630;2023-07-09T04:45:05;21.30;99.90
16229;DHT22;8222;51.462;12.630;2023-07-09T04:47:34;21.30;99.90
16229;DHT22;8222;51.462;12.630;2023-07-09T04:49:59;21.30;99.90
16229;DHT22;8222;51.462;12.630;2023-07-09T04:52:25;21.40;99.90
16229;DHT22;8222;51.462;12.630;2023-07-09T04:54:51;21.40;99.90
16229;DHT22;8222;51.462;12.630;2023-07-09T04:57:16;21.40;99.90
16229;DHT22;8222;51.462;12.630;2023-07-09T04:59:45;21.50;99.90
16229;DHT22;8222;51.462;12.630;2023-07-09T05:02:11;21.50;99.90
16229;DHT22;8222;51.462;12.630;2023-07-09T05:04:36;21.60;99.90
16229;DHT22;8222;51.462;12.630;2023-07-09T05:07:02;21.80;99.90
16229;DHT22;8222;51.462;12.630;2023-07-09T05:09:28;21.80;99.90
16229;DHT22;8222;51.462;12.630;2023-07-09T05:11:56;21.80;99.90
16229;DHT22;8222;51.462;12.630;2023-07-09T05:14:21;21.70;99.90
16229;DHT22;8222;51.462;12.630;2023-07-09T05:16:50;21.60;99.90
16229;DHT22;8222;51.462;12.630;2023-07-09T05:19:15;21.60;99.90
16229;DHT22;8222;51.462;12.630;2023-07-09T05:21:41;21.60;99.90
16229;DHT22;8222;51.462;12.630;2023-07-09T05:24:07;21.60;99.90
16229;DHT22;8222;51.462;12.630;2023-07-09T05:26:33;21.60;99.90
16229;DHT22;8222;51.462;12.630;2023-07-09T05:28:58;21.80;99.90
16229;DHT22;8222;51.462;12.630;2023-07-09T05:31:26;21.90;99.90
16229;DHT22;8222;51.462;12.630;2023-07-09T05:33:52;22.00;99.90
16229;DHT22;8222;51.462;12.630;2023-07-09T05:36:17;22.10;99.90
16229;DHT22;8222;51.462;12.630;2023-07-09T05:38:48;22.20;99.90
16229;DHT22;8222;51.462;12.630;2023-07-09T05:41:15;22.30;99.90
16229;DHT22;8222;51.462;12.630;2023-07-09T05:43:44;22.50;99.90
16229;DHT22;8222;51.462;12.630;2023-07-09T05:46:11;22.50;99.90
16229;DHT22;8222;51.462;12.630;2023-07-09T05:48:37;22.60;99.90
16229;DHT22;8222;51.462;12.630;2023-07-09T05:51:03;22.80;99.90
16229;DHT22;8222;51.462;12.630;2023-07-09T05:53:31;23.10;99.90
16229;DHT22;8222;51.462;12.630;2023-07-09T05:55:59;23.20;99.90
16229;DHT22;8222;51.462;12.630;2023-07-09T05:58:27;23.40;99.90
16229;DHT22;8222;51.462;12.630;2023-07-09T06:00:54;23.40;99.90
16229;DHT22;8222;51.462;12.630;2023-07-09T06:03:24;23.50;99.90
16229;DHT22;8222;51.462;12.630;2023-07-09T06:05:50;23.60;99.90
16229;DHT22;8222;51.462;12.630;2023-07-09T06:08:20;23.60;99.90
16229;DHT22;8222;51.462;12.630;2023-07-09T06:13:18;23.80;99.90
16229;DHT22;8222;51.462;12.630;2023-07-09T06:15:45;24.00;99.90
16229;DHT22;8222;51.462;12.630;2023-07-09T06:18:13;24.20;99.90
16229;DHT22;8222;51.462;12.630;2023-07-09T06:20:39;24.20;99.90
16229;DHT22;8222;51.462;12.630;2023-07-09T06:23:05;24.40;99.90
16229;DHT22;8222;51.462;12.630;2023-07-09T06:25:37;24.50;99.90
16229;DHT22;8222;51.462;12.630;2023-07-09T06:28:03;24.60;99.90
16229;DHT22;8222;51.462;12.630;2023-07-09T06:30:29;24.60;99.90
16229;DHT22;8222;51.462;12.630;2023-07-09T06:32:57;24.60;99.90
16229;DHT22;8222;51.462;12.630;2023-07-09T06:35:22;24.70;99.90
16229;DHT22;8222;51.462;12.630;2023-07-09T06:37:48;24.90;99.90
16229;DHT22;8222;51.462;12.630;2023-07-09T06:40:14;25.00;99.90
16229;DHT22;8222;51.462;12.630;2023-07-09T06:42:44;25.20;99.90
16229;DHT22;8222;51.462;12.630;2023-07-09T06:45:12;25.20;99.90
16229;DHT22;8222;51.462;12.630;2023-07-09T06:47:38;25.50;99.90
16229;DHT22;8222;51.462;12.630;2023-07-09T06:50:08;25.70;99.90
16229;DHT22;8222;51.462;12.630;2023-07-09T06:52:36;25.80;99.90
16229;DHT22;8222;51.462;12.630;2023-07-09T06:55:05;25.90;99.90
16229;DHT22;8222;51.462;12.630;2023-07-09T06:57:33;26.00;99.90
16229;DHT22;8222;51.462;12.630;2023-07-09T06:59:59;26.20;99.90
16229;DHT22;8222;51.462;12.630;2023-07-09T07:02:25;26.30;99.90
16229;DHT22;8222;51.462;12.630;2023-07-09T07:04:51;26.50;99.90
16229;DHT22;8222;51.462;12.630;2023-07-09T07:07:19;26.50;99.90
16229;DHT22;8222;51.462;12.630;2023-07-09T07:09:50;26.60;99.90
16229;DHT22;8222;51.462;12.630;2023-07-09T07:12:28;26.70;99.90
16229;DHT22;8222;51.462;12.630;2023-07-09T07:14:55;26.80;99.90
16229;DHT22;8222;51.462;12.630;2023-07-09T07:17:23;26.90;99.90
16229;DHT22;8222;51.462;12.630;2023-07-09T07:19:50;27.00;96.50
16229;DHT22;8222;51.462;12.630;2023-07-09T07:22:16;27.10;96.30
16229;DHT22;8222;51.462;12.630;2023-07-09T07:24:42;27.30;95.30
16229;DHT22;8222;51.462;12.630;2023-07-09T07:27:10;27.30;94.90
16229;DHT22;8222;51.462;12.630;2023-07-09T07:29:36;27.60;95.40
16229;DHT22;8222;51.462;12.630;2023-07-09T07:32:04;27.70;94.20
16229;DHT22;8222;51.462;12.630;2023-07-09T07:34:30;27.80;94.30
16229;DHT22;8222;51.462;12.630;2023-07-09T07:36:58;27.90;93.90
16229;DHT22;8222;51.462;12.630;2023-07-09T07:39:24;28.00;94.30
16229;DHT22;8222;51.462;12.630;2023-07-09T07:41:49;28.20;93.40
16229;DHT22;8222;51.462;12.630;2023-07-09T07:44:16;28.20;93.00
16229;DHT22;8222;51.462;12.630;2023-07-09T07:46:42;28.30;92.20
16229;DHT22;8222;51.462;12.630;2023-07-09T07:49:10;28.40;92.40
16229;DHT22;8222;51.462;12.630;2023-07-09T07:51:36;28.70;92.70
16229;DHT22;8222;51.462;12.630;2023-07-09T07:54:05;28.90;90.70
16229;DHT22;8222;51.462;12.630;2023-07-09T07:56:39;28.90;90.40
16229;DHT22;8222;51.462;12.630;2023-07-09T07:59:07;28.90;89.80
16229;DHT22;8222;51.462;12.630;2023-07-09T08:01:33;28.90;89.80
16229;DHT22;8222;51.462;12.630;2023-07-09T08:04:02;29.00;90.10
16229;DHT22;8222;51.462;12.630;2023-07-09T08:06:28;29.10;90.60
16229;DHT22;8222;51.462;12.630;2023-07-09T08:08:58;29.40;89.10
16229;DHT22;8222;51.462;12.630;2023-07-09T08:11:24;29.50;84.40
16229;DHT22;8222;51.462;12.630;2023-07-09T08:13:55;29.80;82.40
16229;DHT22;8222;51.462;12.630;2023-07-09T08:16:29;30.10;82.20
16229;DHT22;8222;51.462;12.630;2023-07-09T08:19:05;30.30;78.90
16229;DHT22;8222;51.462;12.630;2023-07-09T08:21:41;30.40;74.80
16229;DHT22;8222;51.462;12.630;2023-07-09T08:24:09;30.40;73.00
16229;DHT22;8222;51.462;12.630;2023-07-09T08:26:42;30.60;72.70
16229;DHT22;8222;51.462;12.630;2023-07-09T08:29:20;30.70;71.70
16229;DHT22;8222;51.462;12.630;2023-07-09T08:31:46;30.90;69.60
16229;DHT22;8222;51.462;12.630;2023-07-09T08:34:14;30.90;69.60
16229;DHT22;8222;51.462;12.630;2023-07-09T08:36:48;30.90;67.80
16229;DHT22;8222;51.462;12.630;2023-07-09T08:39:23;31.00;68.30
16229;DHT22;8222;51.462;12.630;2023-07-09T08:42:05;31.30;69.40
16229;DHT22;8222;51.462;12.630;2023-07-09T08:44:49;31.40;67.50
16229;DHT22;8222;51.462;12.630;2023-07-09T08:50:14;31.70;64.20
16229;DHT22;8222;51.462;12.630;2023-07-09T08:52:56;31.60;62.30
16229;DHT22;8222;51.462;12.630;2023-07-09T08:55:33;31.60;61.20
16229;DHT22;8222;51.462;12.630;2023-07-09T08:58:23;31.60;62.80
16229;DHT22;8222;51.462;12.630;2023-07-09T09:04:34;32.00;59.70
16229;DHT22;8222;51.462;12.630;2023-07-09T09:07:43;31.90;57.80
16229;DHT22;8222;51.462;12.630;2023-07-09T09:10:39;32.10;60.30
16229;DHT22;8222;51.462;12.630;2023-07-09T09:13:23;32.30;59.00
16229;DHT22;8222;51.462;12.630;2023-07-09T09:16:53;32.60;58.40
16229;DHT22;8222;51.462;12.630;2023-07-09T09:30:03;33.00;57.80
16229;DHT22;8222;51.462;12.630;2023-07-09T18:59:19;31.00;60.20
16229;DHT22;8222;51.462;12.630;2023-07-09T19:01:54;30.70;56.80
16229;DHT22;8222;51.462;12.630;2023-07-09T19:15:49;30.20;62.90
16229;DHT22;8222;51.462;12.630;2023-07-09T19:19:35;29.90;63.60
16229;DHT22;8222;51.462;12.630;2023-07-09T19:28:59;29.20;62.50
16229;DHT22;8222;51.462;12.630;2023-07-09T19:31:33;29.20;59.40
16229;DHT22;8222;51.462;12.630;2023-07-09T19:34:26;29.20;59.40
16229;DHT22;8222;51.462;12.630;2023-07-09T19:37:24;29.20;59.30
16229;DHT22;8222;51.462;12.630;2023-07-09T19:39:57;29.20;59.00
16229;DHT22;8222;51.462;12.630;2023-07-09T19:46:15;29.00;60.70
16229;DHT22;8222;51.462;12.630;2023-07-09T19:49:10;28.80;63.80
16229;DHT22;8222;51.462;12.630;2023-07-09T19:51:54;28.70;63.90
16229;DHT22;8222;51.462;12.630;2023-07-09T19:54:50;28.60;65.20
16229;DHT22;8222;51.462;12.630;2023-07-09T19:57:36;28.60;62.10
16229;DHT22;8222;51.462;12.630;2023-07-09T20:00:07;28.50;64.60
16229;DHT22;8222;51.462;12.630;2023-07-09T20:02:36;28.40;64.80
16229;DHT22;8222;51.462;12.630;2023-07-09T20:08:21;28.30;65.50
16229;DHT22;8222;51.462;12.630;2023-07-09T20:11:09;28.20;66.30
16229;DHT22;8222;51.462;12.630;2023-07-09T20:17:14;28.10;65.60
16229;DHT22;8222;51.462;12.630;2023-07-09T20:19:48;28.00;63.90
16229;DHT22;8222;51.462;12.630;2023-07-09T20:22:18;28.10;65.90
16229;DHT22;8222;51.462;12.630;2023-07-09T20:24:50;28.10;65.80
16229;DHT22;8222;51.462;12.630;2023-07-09T20:27:22;28.00;64.40
16229;DHT22;8222;51.462;12.630;2023-07-09T20:29:48;28.10;65.70
16229;DHT22;8222;51.462;12.630;2023-07-09T20:32:21;28.10;66.90
16229;DHT22;8222;51.462;12.630;2023-07-09T20:34:55;28.10;64.60
16229;DHT22;8222;51.462;12.630;2023-07-09T20:37:56;28.00;63.50
16229;DHT22;8222;51.462;12.630;2023-07-09T20:40:25;28.10;63.60
16229;DHT22;8222;51.462;12.630;2023-07-09T20:42:59;27.90;62.20
16229;DHT22;8222;51.462;12.630;2023-07-09T20:45:28;27.90;62.70
16229;DHT22;8222;51.462;12.630;2023-07-09T20:47:56;28.00;63.20
16229;DHT22;8222;51.462;12.630;2023-07-09T20:50:22;27.90;63.40
16229;DHT22;8222;51.462;12.630;2023-07-09T20:52:53;27.80;64.40
16229;DHT22;8222;51.462;12.630;2023-07-09T20:55:27;27.80;64.30
16229;DHT22;8222;51.462;12.630;2023-07-09T20:57:58;27.70;65.20
16229;DHT22;8222;51.462;12.630;2023-07-09T21:00:29;27.70;65.20
16229;DHT22;8222;51.462;12.630;2023-07-09T21:02:57;27.80;64.20
16229;DHT22;8222;51.462;12.630;2023-07-09T21:05:23;27.70;64.40
16229;DHT22;8222;51.462;12.630;2023-07-09T21:07:54;27.70;64.20
16229;DHT22;8222;51.462;12.630;2023-07-09T21:10:23;27.50;67.80
16229;DHT22;8222;51.462;12.630;2023-07-09T21:12:49;27.30;67.90
16229;DHT22;8222;51.462;12.630;2023-07-09T21:15:30;27.20;67.00
16229;DHT22;8222;51.462;12.630;2023-07-09T21:18:02;27.10;69.50
16229;DHT22;8222;51.462;12.630;2023-07-09T21:20:29;27.00;68.80
16229;DHT22;8222;51.462;12.630;2023-07-09T21:22:55;27.00;69.20
16229;DHT22;8222;51.462;12.630;2023-07-09T21:25:24;27.00;69.20
16229;DHT22;8222;51.462;12.630;2023-07-09T21:27:55;26.90;70.00
16229;DHT22;8222;51.462;12.630;2023-07-09T21:30:24;26.70;73.80
16229;DHT22;8222;51.462;12.630;2023-07-09T21:32:55;26.70;74.10
16229;DHT22;8222;51.462;12.630;2023-07-09T21:35:27;26.60;72.10
16229;DHT22;8222;51.462;12.630;2023-07-09T21:37:55;26.60;72.40
16229;DHT22;8222;51.462;12.630;2023-07-09T21:42:53;26.50;70.70
16229;DHT22;8222;51.462;12.630;2023-07-09T21:45:43;26.60;69.80
16229;DHT22;8222;51.462;12.630;2023-07-09T21:48:16;26.70;68.60
16229;DHT22;8222;51.462;12.630;2023-07-09T21:50:43;26.70;70.00
16229;DHT22;8222;51.462;12.630;2023-07-09T21:53:25;26.60;69.30
16229;DHT22;8222;51.462;12.630;2023-07-09T21:56:00;26.70;68.60
16229;DHT22;8222;51.462;12.630;2023-07-09T21:58:26;26.70;68.10
16229;DHT22;8222;51.462;12.630;2023-07-09T22:00:52;26.70;68.90
16229;DHT22;8222;51.462;12.630;2023-07-09T22:03:24;26.60;68.70
16229;DHT22;8222;51.462;12.630;2023-07-09T22:05:50;26.50;68.30
16229;DHT22;8222;51.462;12.630;2023-07-09T22:08:22;26.50;68.60
16229;DHT22;8222;51.462;12.630;2023-07-09T22:10:50;26.40;69.00
16229;DHT22;8222;51.462;12.630;2023-07-09T22:13:18;26.50;68.80
16229;DHT22;8222;51.462;12.630;2023-07-09T22:15:47;26.50;69.30
16229;DHT22;8222;51.462;12.630;2023-07-09T22:18:20;26.40;70.20
16229;DHT22;8222;51.462;12.630;2023-07-09T22:20:49;26.30;69.40
16229;DHT22;8222;51.462;12.630;2023-07-09T22:23:23;26.20;70.50
16229;DHT22;8222;51.462;12.630;2023-07-09T22:25:53;26.10;70.80
16229;DHT22;8222;51.462;12.630;2023-07-09T22:28:19;26.20;70.70
16229;DHT22;8222;51.462;12.630;2023-07-09T22:30:49;26.20;70.80
16229;DHT22;8222;51.462;12.630;2023-07-09T22:33:20;26.10;70.50
16229;DHT22;8222;51.462;12.630;2023-07-09T22:35:46;26.00;70.80
16229;DHT22;8222;51.462;12.630;2023-07-09T22:38:19;26.00;71.30
16229;DHT22;8222;51.462;12.630;2023-07-09T22:40:50;25.90;71.50
16229;DHT22;8222;51.462;12.630;2023-07-09T22:43:16;25.80;71.30
16229;DHT22;8222;51.462;12.630;2023-07-09T22:45:51;25.80;71.50
16229;DHT22;8222;51.462;12.630;2023-07-09T22:48:22;25.80;71.60
16229;DHT22;8222;51.462;12.630;2023-07-09T22:50:49;25.90;72.40
16229;DHT22;8222;51.462;12.630;2023-07-09T22:53:22;26.00;72.50
16229;DHT22;8222;51.462;12.630;2023-07-09T22:55:50;25.90;73.50
16229;DHT22;8222;51.462;12.630;2023-07-09T22:58:18;25.80;73.50
16229;DHT22;8222;51.462;12.630;2023-07-09T23:00:53;25.70;74.10
16229;DHT22;8222;51.462;12.630;2023-07-09T23:03:21;25.60;79.60
16229;DHT22;8222;51.462;12.630;2023-07-09T23:05:52;25.50;80.50
16229;DHT22;8222;51.462;12.630;2023-07-09T23:08:23;25.50;81.90
16229;DHT22;8222;51.462;12.630;2023-07-09T23:10:57;25.40;85.50
16229;DHT22;8222;51.462;12.630;2023-07-09T23:13:33;25.30;88.40
16229;DHT22;8222;51.462;12.630;2023-07-09T23:16:01;25.40;90.70
16229;DHT22;8222;51.462;12.630;2023-07-09T23:18:32;25.30;91.50
16229;DHT22;8222;51.462;12.630;2023-07-09T23:21:03;25.20;91.90
16229;DHT22;8222;51.462;12.630;2023-07-09T23:23:33;25.10;94.00
16229;DHT22;8222;51.462;12.630;2023-07-09T23:26:01;25.10;96.30
16229;DHT22;8222;51.462;12.630;2023-07-09T23:28:32;25.20;96.30
16229;DHT22;8222;51.462;12.630;2023-07-09T23:30:57;25.10;99.40
16229;DHT22;8222;51.462;12.630;2023-07-09T23:33:29;25.00;99.90
16229;DHT22;8222;51.462;12.630;2023-07-09T23:35:59;25.00;99.90
16229;DHT22;8222;51.462;12.630;2023-07-09T23:38:31;25.00;99.90
16229;DHT22;8222;51.462;12.630;2023-07-09T23:41:02;24.90;99.90
16229;DHT22;8222;51.462;12.630;2023-07-09T23:43:33;24.80;99.90
16229;DHT22;8222;51.462;12.630;2023-07-09T23:46:02;24.70;99.90
16229;DHT22;8222;51.462;12.630;2023-07-09T23:48:28;24.70;99.90
16229;DHT22;8222;51.462;12.630;2023-07-09T23:50:58;24.60;99.90
16229;DHT22;8222;51.462;12.630;2023-07-09T23:53:30;24.40;99.90
16229;DHT22;8222;51.462;12.630;2023-07-09T23:56:01;24.50;99.90
16229;DHT22;8222;51.462;12.630;2023-07-09T23:58:31;24.50;99.90
